createdAt,value
2018-09-01T00:00:40.050Z,2.10
2018-09-01T00:03:07.242Z,2.00
2018-09-01T00:05:34.446Z,2.10
2018-09-01T00:08:01.700Z,2.07
2018-09-01T00:10:28.899Z,2.07
2018-09-01T00:12:56.065Z,1.60
2018-09-01T00:15:23.266Z,2.23
2018-09-01T00:17:50.431Z,2.10
2018-09-01T00:20:17.651Z,2.00
2018-09-01T00:22:44.828Z,2.13
2018-09-01T00:25:12.023Z,1.90
2018-09-01T00:27:39.193Z,2.17
2018-09-01T00:30:06.447Z,1.87
2018-09-01T00:32:33.718Z,2.27
2018-09-01T00:35:00.911Z,1.80
2018-09-01T00:37:33.595Z,1.70
2018-09-01T00:40:00.792Z,2.03
2018-09-01T00:42:27.967Z,1.80
2018-09-01T00:44:55.167Z,2.00
2018-09-01T00:47:22.361Z,1.90
2018-09-01T00:49:49.579Z,2.10
2018-09-01T00:52:16.755Z,2.47
2018-09-01T00:54:43.995Z,2.00
2018-09-01T00:57:11.159Z,1.60
2018-09-01T00:59:38.349Z,2.00
2018-09-01T01:02:05.544Z,2.10
2018-09-01T01:04:32.893Z,2.33
2018-09-01T01:07:00.072Z,2.23
2018-09-01T01:09:27.269Z,1.70
2018-09-01T01:11:54.482Z,1.90
2018-09-01T01:14:21.665Z,2.20
2018-09-01T01:16:48.841Z,1.77
2018-09-01T01:19:16.014Z,2.00
2018-09-01T01:21:43.186Z,1.70
2018-09-01T01:24:10.374Z,2.23
2018-09-01T01:26:37.558Z,2.63
2018-09-01T01:29:04.730Z,2.10
2018-09-01T01:31:31.922Z,2.03
2018-09-01T01:33:59.126Z,2.20
2018-09-01T01:36:26.326Z,1.80
2018-09-01T01:38:53.494Z,2.73
2018-09-01T01:41:20.707Z,2.17
2018-09-01T01:43:48.114Z,2.50
2018-09-01T01:46:15.304Z,2.00
2018-09-01T01:51:16.266Z,2.23
2018-09-01T01:53:43.442Z,2.20
2018-09-01T01:56:10.643Z,2.57
2018-09-01T01:58:37.832Z,1.83
2018-09-01T02:01:05.062Z,1.70
2018-09-01T02:03:32.241Z,2.00
2018-09-01T02:05:59.437Z,2.00
2018-09-01T02:08:26.599Z,1.93
2018-09-01T02:10:53.795Z,1.93
2018-09-01T02:13:20.959Z,2.13
2018-09-01T02:15:48.146Z,1.90
2018-09-01T02:18:15.328Z,1.80
2018-09-01T02:20:42.507Z,2.47
2018-09-01T02:23:09.688Z,2.10
2018-09-01T02:25:36.866Z,1.80
2018-09-01T02:28:04.043Z,1.83
2018-09-01T02:30:31.231Z,1.97
2018-09-01T02:32:58.419Z,2.30
2018-09-01T02:35:25.602Z,2.57
2018-09-01T02:37:52.787Z,2.37
2018-09-01T02:40:19.981Z,2.00
2018-09-01T02:42:47.151Z,2.07
2018-09-01T02:45:14.347Z,2.40
2018-09-01T02:47:41.513Z,2.90
2018-09-01T02:50:08.695Z,2.40
2018-09-01T02:52:35.895Z,2.47
2018-09-01T02:55:03.067Z,2.33
2018-09-01T02:57:30.251Z,2.20
2018-09-01T02:59:57.426Z,2.37
2018-09-01T03:02:30.066Z,2.33
2018-09-01T03:04:57.287Z,2.13
2018-09-01T03:07:24.476Z,2.20
2018-09-01T03:09:51.638Z,2.33
2018-09-01T03:12:18.827Z,2.00
2018-09-01T03:14:46.004Z,2.40
2018-09-01T03:17:13.195Z,2.20
2018-09-01T03:19:40.368Z,2.53
2018-09-01T03:22:07.555Z,2.87
2018-09-01T03:24:34.763Z,2.63
2018-09-01T03:27:01.950Z,2.40
2018-09-01T03:29:29.116Z,2.70
2018-09-01T03:31:56.311Z,2.10
2018-09-01T03:34:23.484Z,2.50
2018-09-01T03:36:50.675Z,2.83
2018-09-01T03:39:17.850Z,2.23
2018-09-01T03:41:45.054Z,2.63
2018-09-01T03:44:12.232Z,2.00
2018-09-01T03:46:39.416Z,2.50
2018-09-01T03:49:08.086Z,2.27
2018-09-01T03:51:35.265Z,2.50
2018-09-01T03:54:02.461Z,2.07
2018-09-01T03:56:29.647Z,2.50
2018-09-01T03:58:56.842Z,2.47
2018-09-01T04:01:24.030Z,2.90
2018-09-01T04:03:51.207Z,2.47
2018-09-01T04:06:18.416Z,2.60
2018-09-01T04:08:45.595Z,2.50
2018-09-01T04:11:12.783Z,2.03
2018-09-01T04:13:39.969Z,1.70
2018-09-01T04:16:07.146Z,2.30
2018-09-01T04:18:34.322Z,2.47
2018-09-01T04:21:01.506Z,2.83
2018-09-01T04:23:28.682Z,2.23
2018-09-01T04:25:56.066Z,2.80
2018-09-01T04:28:23.260Z,2.40
2018-09-01T04:30:50.429Z,2.13
2018-09-01T04:33:17.635Z,2.80
2018-09-01T04:35:44.801Z,2.53
2018-09-01T04:38:11.985Z,3.00
2018-09-01T04:40:39.166Z,2.77
2018-09-01T04:43:06.746Z,2.57
2018-09-01T04:45:33.926Z,3.10
2018-09-01T04:48:01.110Z,2.57
2018-09-01T04:50:28.283Z,3.00
2018-09-01T04:52:55.488Z,2.40
2018-09-01T04:55:22.643Z,2.23
2018-09-01T04:57:49.840Z,2.77
2018-09-01T05:00:21.899Z,2.63
2018-09-01T05:02:49.775Z,2.60
2018-09-01T05:05:16.977Z,2.73
2018-09-01T05:07:44.192Z,2.33
2018-09-01T05:10:11.359Z,2.33
2018-09-01T05:12:38.566Z,2.60
2018-09-01T05:15:05.755Z,2.17
2018-09-01T05:17:32.943Z,2.90
2018-09-01T05:20:00.111Z,2.37
2018-09-01T05:22:27.327Z,3.50
2018-09-01T05:24:54.541Z,2.67
2018-09-01T05:27:21.695Z,2.90
2018-09-01T05:29:48.874Z,2.43
2018-09-01T05:32:16.031Z,2.73
2018-09-01T05:34:43.209Z,2.60
2018-09-01T05:37:10.393Z,2.30
2018-09-01T05:39:37.546Z,2.67
2018-09-01T05:42:04.736Z,2.40
2018-09-01T05:44:31.906Z,3.20
2018-09-01T05:46:59.066Z,2.33
2018-09-01T05:49:26.262Z,2.67
2018-09-01T05:51:53.422Z,2.60
2018-09-01T05:54:20.578Z,2.73
2018-09-01T05:56:47.759Z,2.60
2018-09-01T05:59:14.957Z,2.30
2018-09-01T06:01:42.138Z,2.50
2018-09-01T06:04:09.319Z,2.70
2018-09-01T06:06:36.525Z,2.43
2018-09-01T06:09:05.078Z,2.63
2018-09-01T06:11:32.280Z,2.03
2018-09-01T06:13:59.422Z,2.50
2018-09-01T06:16:26.570Z,2.00
2018-09-01T06:18:53.739Z,2.17
2018-09-01T06:21:20.915Z,2.60
2018-09-01T06:23:48.075Z,2.50
2018-09-01T06:26:15.253Z,2.43
2018-09-01T06:28:47.135Z,3.23
2018-09-01T06:31:14.839Z,2.47
2018-09-01T06:33:42.012Z,3.97
2018-09-01T06:36:09.185Z,2.87
2018-09-01T06:38:36.350Z,3.10
2018-09-01T06:41:03.541Z,3.10
2018-09-01T06:43:30.695Z,2.60
2018-09-01T06:45:57.910Z,2.57
2018-09-01T06:48:25.062Z,2.67
2018-09-01T06:50:52.267Z,2.80
2018-09-01T06:53:19.418Z,2.60
2018-09-01T06:55:46.694Z,2.83
2018-09-01T06:58:13.843Z,2.80
2018-09-01T07:00:41.041Z,2.23
2018-09-01T07:03:08.227Z,2.70
2018-09-01T07:05:35.387Z,1.90
2018-09-01T07:08:02.638Z,2.77
2018-09-01T07:10:29.790Z,2.40
2018-09-01T07:12:56.944Z,2.80
2018-09-01T07:15:24.118Z,2.60
2018-09-01T07:17:51.353Z,3.17
2018-09-01T07:20:18.551Z,2.23
2018-09-01T07:22:45.692Z,2.20
2018-09-01T07:25:12.838Z,2.20
2018-09-01T07:27:40.374Z,1.83
2018-09-01T07:30:08.189Z,2.10
2018-09-01T07:32:35.296Z,2.20
2018-09-01T07:35:02.466Z,2.07
2018-09-01T07:37:29.643Z,2.30
2018-09-01T07:39:56.832Z,2.30
2018-09-01T07:42:23.986Z,2.40
2018-09-01T07:44:51.215Z,2.30
2018-09-01T07:47:18.398Z,2.20
2018-09-01T07:49:45.551Z,2.70
2018-09-01T07:52:12.974Z,2.40
2018-09-01T07:54:40.208Z,1.73
2018-09-01T07:57:07.361Z,2.37
2018-09-01T07:59:34.530Z,1.70
2018-09-01T08:02:01.693Z,2.57
2018-09-01T08:04:28.857Z,1.80
2018-09-01T08:06:56.039Z,2.10
2018-09-01T08:09:23.221Z,1.50
2018-09-01T08:11:50.382Z,2.13
2018-09-01T08:14:17.680Z,2.17
2018-09-01T08:16:44.750Z,2.37
2018-09-01T08:19:11.932Z,2.03
2018-09-01T08:21:39.089Z,1.73
2018-09-01T08:24:06.383Z,2.27
2018-09-01T08:26:33.571Z,2.00
2018-09-01T08:29:00.870Z,1.50
2018-09-01T08:31:28.066Z,2.10
2018-09-01T08:33:55.277Z,1.70
2018-09-01T08:36:22.428Z,2.43
2018-09-01T08:38:49.599Z,2.17
2018-09-01T08:41:16.744Z,2.90
2018-09-01T08:43:43.930Z,1.93
2018-09-01T08:46:11.104Z,1.90
2018-09-01T08:48:38.278Z,2.00
2018-09-01T08:51:05.717Z,2.10
2018-09-01T08:53:32.950Z,2.10
2018-09-01T08:56:00.110Z,2.00
2018-09-01T08:58:27.300Z,1.93
2018-09-01T09:00:54.458Z,1.50
2018-09-01T09:03:21.600Z,1.73
2018-09-01T09:05:48.788Z,1.60
2018-09-01T09:08:22.564Z,1.67
2018-09-01T09:10:49.754Z,2.17
2018-09-01T09:13:16.940Z,2.00
2018-09-01T09:15:44.094Z,1.63
2018-09-01T09:18:11.550Z,1.80
2018-09-01T09:20:38.718Z,1.43
2018-09-01T09:23:06.271Z,2.03
2018-09-01T09:25:33.460Z,1.40
2018-09-01T09:28:00.772Z,1.80
2018-09-01T09:30:27.965Z,2.00
2018-09-01T09:32:55.130Z,1.50
2018-09-01T09:35:22.283Z,1.77
2018-09-01T09:37:49.486Z,2.00
2018-09-01T09:40:16.642Z,1.90
2018-09-01T09:42:43.820Z,1.63
2018-09-01T09:45:10.975Z,1.60
2018-09-01T09:47:38.164Z,1.60
2018-09-01T09:50:05.326Z,1.90
2018-09-01T09:52:32.530Z,2.30
2018-09-01T09:54:59.761Z,1.60
2018-09-01T09:57:26.907Z,1.90
2018-09-01T09:59:54.090Z,1.43
2018-09-01T10:02:21.248Z,1.90
2018-09-01T10:04:48.420Z,1.63
2018-09-01T10:07:15.573Z,1.90
2018-09-01T10:09:42.742Z,1.80
2018-09-01T10:12:09.886Z,2.40
2018-09-01T10:14:37.091Z,1.80
2018-09-01T10:17:04.286Z,2.00
2018-09-01T10:19:31.492Z,1.83
2018-09-01T10:21:58.677Z,1.90
2018-09-01T10:24:25.847Z,2.00
2018-09-01T10:26:53.048Z,2.13
2018-09-01T10:29:20.204Z,1.53
2018-09-01T10:31:47.377Z,2.47
2018-09-01T10:34:14.543Z,1.80
2018-09-01T10:36:41.722Z,1.67
2018-09-01T10:39:09.190Z,1.70
2018-09-01T10:41:38.501Z,1.50
2018-09-01T10:44:06.162Z,1.97
2018-09-01T10:46:33.365Z,1.60
2018-09-01T10:49:00.574Z,1.77
2018-09-01T10:51:27.722Z,2.00
2018-09-01T10:53:54.911Z,2.20
2018-09-01T10:56:22.068Z,1.43
2018-09-01T10:58:49.279Z,1.83
2018-09-01T11:01:16.418Z,1.67
2018-09-01T11:03:43.559Z,2.10
2018-09-01T11:06:10.734Z,1.60
2018-09-01T11:08:37.922Z,2.37
2018-09-01T11:11:05.248Z,1.47
2018-09-01T11:13:32.384Z,1.57
2018-09-01T11:15:59.574Z,2.10
2018-09-01T11:18:26.733Z,1.73
2018-09-01T11:20:54.226Z,1.60
2018-09-01T11:23:21.386Z,1.83
2018-09-01T11:25:48.574Z,1.40
2018-09-01T11:28:15.776Z,1.40
2018-09-01T11:30:43.163Z,1.57
2018-09-01T11:33:10.322Z,2.00
2018-09-01T11:35:37.527Z,1.37
2018-09-01T11:38:04.803Z,1.83
2018-09-01T11:40:31.987Z,1.50
2018-09-01T11:42:59.266Z,1.43
2018-09-01T11:45:26.333Z,1.90
2018-09-01T11:47:53.536Z,1.10
2018-09-01T11:50:20.712Z,1.50
2018-09-01T11:52:47.871Z,1.73
2018-09-01T11:55:15.067Z,1.70
2018-09-01T11:57:42.219Z,1.50
2018-09-01T12:00:09.383Z,1.30
2018-09-01T12:02:36.581Z,1.00
2018-09-01T12:05:03.744Z,1.30
2018-09-01T12:07:30.931Z,1.33
2018-09-01T12:09:58.090Z,1.40
2018-09-01T12:12:25.242Z,1.57
2018-09-01T12:14:52.418Z,1.00
2018-09-01T12:17:19.583Z,1.37
2018-09-01T12:19:46.771Z,1.90
2018-09-01T12:22:13.942Z,0.97
2018-09-01T12:24:41.127Z,1.40
2018-09-01T12:27:08.311Z,1.17
2018-09-01T12:29:35.466Z,1.57
2018-09-01T12:32:02.947Z,1.30
2018-09-01T12:34:30.106Z,1.30
2018-09-01T12:36:57.283Z,1.30
2018-09-01T12:39:24.463Z,1.30
2018-09-01T12:41:51.691Z,1.40
2018-09-01T12:44:18.827Z,1.00
2018-09-01T12:46:46.005Z,1.30
2018-09-01T12:49:13.214Z,1.30
2018-09-01T12:51:40.359Z,1.40
2018-09-01T12:54:07.752Z,1.20
2018-09-01T12:56:34.927Z,1.30
2018-09-01T12:59:02.653Z,1.23
2018-09-01T13:01:29.836Z,1.10
2018-09-01T13:03:57.039Z,1.00
2018-09-01T13:06:24.211Z,1.37
2018-09-01T13:08:51.398Z,1.20
2018-09-01T13:11:18.559Z,1.13
2018-09-01T13:13:45.755Z,1.30
2018-09-01T13:16:12.910Z,1.33
2018-09-01T13:18:40.066Z,1.30
2018-09-01T13:21:07.247Z,1.03
2018-09-01T13:23:34.420Z,1.17
2018-09-01T13:26:01.609Z,1.40
2018-09-01T13:28:28.760Z,1.53
2018-09-01T13:30:55.955Z,1.03
2018-09-01T13:33:23.114Z,1.20
2018-09-01T13:35:50.302Z,1.10
2018-09-01T13:38:17.485Z,1.20
2018-09-01T13:40:44.683Z,1.40
2018-09-01T13:43:12.181Z,1.20
2018-09-01T13:45:39.335Z,1.33
2018-09-01T13:48:06.699Z,1.10
2018-09-01T13:50:33.876Z,1.77
2018-09-01T13:53:01.073Z,1.00
2018-09-01T13:55:28.266Z,1.40
2018-09-01T13:57:55.422Z,1.27
2018-09-01T14:00:22.607Z,1.47
2018-09-01T14:02:49.804Z,1.10
2018-09-01T14:05:16.955Z,1.37
2018-09-01T14:07:44.167Z,1.67
2018-09-01T14:10:11.311Z,1.37
2018-09-01T14:12:38.521Z,1.30
2018-09-01T14:15:05.680Z,1.40
2018-09-01T14:17:32.844Z,1.30
2018-09-01T14:20:00.030Z,1.40
2018-09-01T14:22:27.195Z,1.27
2018-09-01T14:24:54.391Z,1.10
2018-09-01T14:27:21.546Z,1.70
2018-09-01T14:29:48.734Z,1.20
2018-09-01T14:32:15.902Z,1.33
2018-09-01T14:34:43.086Z,1.20
2018-09-01T14:37:10.298Z,1.50
2018-09-01T14:39:37.480Z,1.60
2018-09-01T14:42:04.650Z,1.20
2018-09-01T14:44:31.813Z,1.40
2018-09-01T14:46:59.063Z,1.23
2018-09-01T14:49:26.176Z,1.10
2018-09-01T14:51:53.366Z,1.30
2018-09-01T14:54:20.519Z,1.80
2018-09-01T14:56:47.674Z,1.33
2018-09-01T14:59:14.890Z,1.20
2018-09-01T15:01:42.026Z,1.27
2018-09-01T15:04:09.178Z,1.20
2018-09-01T15:06:36.363Z,1.10
2018-09-01T15:09:04.225Z,1.07
2018-09-01T15:11:31.402Z,1.80
2018-09-01T15:13:58.562Z,1.33
2018-09-01T15:16:25.742Z,1.07
2018-09-01T15:18:52.910Z,1.20
2018-09-01T15:21:20.278Z,1.30
2018-09-01T15:23:47.440Z,1.07
2018-09-01T15:26:14.632Z,1.30
2018-09-01T15:28:41.897Z,1.40
2018-09-01T15:31:09.031Z,1.50
2018-09-01T15:33:36.357Z,1.00
2018-09-01T15:36:03.523Z,1.20
2018-09-01T15:38:30.683Z,1.40
2018-09-01T15:40:57.878Z,1.20
2018-09-01T15:43:25.030Z,1.20
2018-09-01T15:45:52.231Z,1.50
2018-09-01T15:48:19.395Z,1.40
2018-09-01T15:50:46.583Z,1.30
2018-09-01T15:53:13.780Z,1.80
2018-09-01T15:55:40.948Z,1.17
2018-09-01T15:58:08.138Z,1.53
2018-09-01T16:00:35.301Z,1.20
2018-09-01T16:03:02.499Z,1.27
2018-09-01T16:05:29.664Z,1.43
2018-09-01T16:07:56.843Z,1.40
2018-09-01T16:10:24.112Z,1.10
2018-09-01T16:12:51.292Z,1.50
2018-09-01T16:15:18.492Z,1.70
2018-09-01T16:17:45.959Z,1.13
2018-09-01T16:20:13.175Z,1.20
2018-09-01T16:22:40.343Z,1.47
2018-09-01T16:25:07.527Z,1.20
2018-09-01T16:27:35.010Z,1.23
2018-09-01T16:30:02.202Z,1.53
2018-09-01T16:32:29.378Z,1.17
2018-09-01T16:34:56.534Z,1.20
2018-09-01T16:37:23.718Z,1.60
2018-09-01T16:39:50.907Z,1.33
2018-09-01T16:42:18.078Z,1.10
2018-09-01T16:44:45.243Z,1.47
2018-09-01T16:47:12.435Z,1.30
2018-09-01T16:49:39.612Z,1.30
2018-09-01T16:52:06.809Z,1.60
2018-09-01T16:54:33.968Z,1.03
2018-09-01T16:57:01.154Z,1.20
2018-09-01T16:59:28.308Z,1.40
2018-09-01T17:01:55.496Z,1.23
2018-09-01T17:04:22.659Z,1.50
2018-09-01T17:06:49.864Z,1.30
2018-09-01T17:09:17.027Z,1.50
2018-09-01T17:11:44.224Z,1.27
2018-09-01T17:14:11.421Z,1.57
2018-09-01T17:16:38.585Z,1.50
2018-09-01T17:21:39.398Z,1.17
2018-09-01T17:24:06.593Z,1.20
2018-09-01T17:26:33.760Z,1.20
2018-09-01T17:29:00.971Z,1.27
2018-09-01T17:31:28.144Z,1.33
2018-09-01T17:33:55.322Z,1.30
2018-09-01T17:36:22.537Z,1.00
2018-09-01T17:38:49.714Z,1.10
2018-09-01T17:41:16.962Z,1.30
2018-09-01T17:43:44.324Z,1.27
2018-09-01T17:46:11.499Z,1.83
2018-09-01T17:49:41.816Z,1.40
2018-09-01T17:52:08.992Z,1.40
2018-09-01T17:54:36.175Z,1.20
2018-09-01T17:57:03.388Z,1.67
2018-09-01T17:59:30.547Z,1.27
2018-09-01T18:01:57.758Z,1.20
2018-09-01T18:04:24.947Z,1.00
2018-09-01T18:06:52.147Z,1.53
2018-09-01T18:09:19.324Z,1.50
2018-09-01T18:11:46.486Z,1.30
2018-09-01T18:14:13.691Z,1.30
2018-09-01T18:16:40.907Z,1.53
2018-09-01T18:19:08.030Z,1.70
2018-09-01T18:21:35.323Z,1.33
2018-09-01T18:24:02.484Z,1.47
2018-09-01T18:26:29.641Z,1.43
2018-09-01T18:28:56.863Z,1.50
2018-09-01T18:31:24.023Z,1.50
2018-09-01T18:33:52.208Z,1.50
2018-09-01T18:36:19.840Z,1.20
2018-09-01T18:38:47.710Z,1.43
2018-09-01T18:41:15.411Z,2.03
2018-09-01T18:43:43.396Z,1.30
2018-09-01T18:46:11.404Z,1.40
2018-09-01T18:48:38.637Z,1.63
2018-09-01T18:51:05.803Z,1.80
2018-09-01T18:53:33.044Z,1.60
2018-09-01T18:56:00.207Z,1.47
2018-09-01T18:58:27.391Z,2.00
2018-09-01T19:00:54.554Z,1.87
2018-09-01T19:03:21.761Z,1.40
2018-09-01T19:05:48.953Z,1.80
2018-09-01T19:08:16.145Z,1.33
2018-09-01T19:10:43.299Z,1.40
2018-09-01T19:13:10.447Z,1.67
2018-09-01T19:15:37.751Z,1.40
2018-09-01T19:18:04.935Z,1.70
2018-09-01T19:20:32.107Z,1.90
2018-09-01T19:22:59.299Z,1.50
2018-09-01T19:25:26.450Z,1.60
2018-09-01T19:27:53.633Z,2.00
2018-09-01T19:30:20.802Z,1.70
2018-09-01T19:32:47.997Z,1.60
2018-09-01T19:35:15.171Z,1.80
2018-09-01T19:37:42.371Z,1.97
2018-09-01T19:40:09.871Z,1.80
2018-09-01T19:42:37.078Z,1.80
2018-09-01T19:45:04.330Z,2.03
2018-09-01T19:47:31.466Z,1.80
2018-09-01T19:49:58.629Z,1.77
2018-09-01T19:52:25.787Z,1.50
2018-09-01T19:54:52.954Z,1.40
2018-09-01T19:57:20.107Z,1.77
2018-09-01T19:59:47.286Z,1.60
2018-09-01T20:02:14.435Z,1.97
2018-09-01T20:04:41.631Z,2.03
2018-09-01T20:07:08.782Z,1.70
2018-09-01T20:09:35.969Z,1.37
2018-09-01T20:12:03.120Z,2.17
2018-09-01T20:14:30.311Z,1.57
2018-09-01T20:16:57.477Z,1.87
2018-09-01T20:19:24.636Z,1.70
2018-09-01T20:21:51.851Z,2.00
2018-09-01T20:24:19.016Z,1.90
2018-09-01T20:26:46.478Z,1.67
2018-09-01T20:29:13.635Z,2.10
2018-09-01T20:31:40.900Z,2.00
2018-09-01T20:34:08.001Z,1.93
2018-09-01T20:36:35.164Z,1.93
2018-09-01T20:39:02.405Z,1.83
2018-09-01T20:41:29.585Z,2.00
2018-09-01T20:43:56.803Z,2.07
2018-09-01T20:46:23.973Z,1.90
2018-09-01T20:48:51.206Z,1.70
2018-09-01T20:51:18.370Z,1.83
2018-09-01T20:53:45.554Z,2.10
2018-09-01T20:56:12.755Z,1.80
2018-09-01T20:58:39.923Z,2.43
2018-09-01T21:01:07.129Z,2.10
2018-09-01T21:03:34.277Z,2.00
2018-09-01T21:06:01.478Z,2.27
2018-09-01T21:08:28.646Z,2.30
2018-09-01T21:10:55.815Z,1.87
2018-09-01T21:13:22.962Z,2.30
2018-09-01T21:15:50.139Z,2.20
2018-09-01T21:18:17.291Z,2.00
2018-09-01T21:20:44.473Z,2.53
2018-09-01T21:23:11.671Z,2.20
2018-09-01T21:25:38.830Z,2.13
2018-09-01T21:28:05.988Z,2.50
2018-09-01T21:30:34.050Z,1.90
2018-09-01T21:33:01.307Z,2.17
2018-09-01T21:35:28.536Z,2.17
2018-09-01T21:37:55.685Z,2.13
2018-09-01T21:40:22.857Z,2.37
2018-09-01T21:42:50.042Z,2.37
2018-09-01T21:45:17.210Z,2.40
2018-09-01T21:47:44.483Z,2.53
2018-09-01T21:50:11.763Z,2.63
2018-09-01T21:52:38.939Z,2.23
2018-09-01T21:55:06.111Z,2.60
2018-09-01T21:57:33.291Z,2.50
2018-09-01T22:00:00.514Z,2.17
2018-09-01T22:02:27.679Z,2.37
2018-09-01T22:05:00.296Z,2.47
2018-09-01T22:07:27.476Z,2.20
2018-09-01T22:09:55.193Z,2.37
2018-09-01T22:12:22.855Z,2.37
2018-09-01T22:14:51.010Z,2.50
2018-09-01T22:17:18.495Z,2.60
2018-09-01T22:19:45.655Z,2.23
2018-09-01T22:22:12.994Z,2.73
2018-09-01T22:24:40.162Z,2.13
2018-09-01T22:27:07.338Z,2.70
2018-09-01T22:29:34.502Z,2.40
2018-09-01T22:32:01.740Z,2.40
2018-09-01T22:34:28.923Z,2.53
2018-09-01T22:36:56.095Z,2.27
2018-09-01T22:39:23.323Z,2.80
2018-09-01T22:41:50.487Z,2.30
2018-09-01T22:44:17.698Z,2.30
2018-09-01T22:46:44.876Z,2.10
2018-09-01T22:49:12.024Z,2.57
2018-09-01T22:51:39.195Z,2.57
2018-09-01T22:54:06.625Z,2.50
2018-09-01T22:56:33.793Z,2.30
2018-09-01T22:59:00.951Z,2.10
2018-09-01T23:01:28.135Z,3.10
2018-09-01T23:03:55.303Z,2.47
2018-09-01T23:06:22.484Z,2.77
2018-09-01T23:08:49.667Z,2.20
2018-09-01T23:11:16.855Z,2.40
2018-09-01T23:13:44.034Z,2.97
2018-09-01T23:16:11.442Z,2.60
2018-09-01T23:18:38.593Z,2.10
2018-09-01T23:21:05.807Z,2.53
2018-09-01T23:23:32.975Z,1.93
2018-09-01T23:26:00.138Z,2.30
2018-09-01T23:28:27.308Z,2.00
2018-09-01T23:30:54.474Z,2.60
2018-09-01T23:33:21.676Z,2.10
2018-09-01T23:35:48.849Z,2.43
2018-09-01T23:38:16.025Z,2.73
2018-09-01T23:40:43.179Z,2.13
2018-09-01T23:43:10.369Z,2.70
2018-09-01T23:45:37.533Z,3.00
2018-09-01T23:48:04.730Z,2.33
2018-09-01T23:50:31.920Z,2.93
2018-09-01T23:52:59.136Z,2.50
2018-09-01T23:55:26.331Z,2.50
2018-09-01T23:57:53.520Z,2.30
